sensor_id;sensor_type;location;lat;lon;timestamp;temperature;humidity
73955;DHT22;62306;52.516;13.290;2023-05-20T00:01:04;12.80;86.30
73955;DHT22;62306;52.516;13.290;2023-05-20T00:03:31;12.80;86.70
73955;DHT22;62306;52.516;13.290;2023-05-20T00:05:58;12.70;87.00
73955;DHT22;62306;52.516;13.290;2023-05-20T00:08:25;12.70;87.30
73955;DHT22;62306;52.516;13.290;2023-05-20T00:10:52;12.60;87.60
73955;DHT22;62306;52.516;13.290;2023-05-20T00:13:20;12.60;88.10
73955;DHT22;62306;52.516;13.290;2023-05-20T00:15:48;12.50;88.70
73955;DHT22;62306;52.516;13.290;2023-05-20T00:18:15;12.50;89.00
73955;DHT22;62306;52.516;13.290;2023-05-20T00:20:42;12.40;89.40
73955;DHT22;62306;52.516;13.290;2023-05-20T00:23:09;12.40;89.80
73955;DHT22;62306;52.516;13.290;2023-05-20T00:25:36;12.40;90.10
73955;DHT22;62306;52.516;13.290;2023-05-20T00:28:04;12.30;90.30
73955;DHT22;62306;52.516;13.290;2023-05-20T00:30:32;12.30;90.60
73955;DHT22;62306;52.516;13.290;2023-05-20T00:32:59;12.20;90.90
73955;DHT22;62306;52.516;13.290;2023-05-20T00:35:26;12.20;91.00
73955;DHT22;62306;52.516;13.290;2023-05-20T00:37:53;12.10;91.30
73955;DHT22;62306;52.516;13.290;2023-05-20T00:40:20;12.10;91.50
73955;DHT22;62306;52.516;13.290;2023-05-20T00:42:48;12.10;91.80
73955;DHT22;62306;52.516;13.290;2023-05-20T00:45:15;12.00;91.90
73955;DHT22;62306;52.516;13.290;2023-05-20T00:47:43;12.00;92.20
73955;DHT22;62306;52.516;13.290;2023-05-20T00:50:10;12.00;92.50
73955;DHT22;62306;52.516;13.290;2023-05-20T00:52:38;11.90;92.80
73955;DHT22;62306;52.516;13.290;2023-05-20T00:55:06;11.90;93.00
73955;DHT22;62306;52.516;13.290;2023-05-20T00:57:33;11.90;93.10
73955;DHT22;62306;52.516;13.290;2023-05-20T01:00:01;11.90;93.40
73955;DHT22;62306;52.516;13.290;2023-05-20T01:02:28;11.90;93.40
73955;DHT22;62306;52.516;13.290;2023-05-20T01:04:56;11.90;93.70
73955;DHT22;62306;52.516;13.290;2023-05-20T01:07:23;11.90;93.90
73955;DHT22;62306;52.516;13.290;2023-05-20T01:09:51;11.80;94.20
73955;DHT22;62306;52.516;13.290;2023-05-20T01:12:25;11.80;94.30
73955;DHT22;62306;52.516;13.290;2023-05-20T01:14:58;11.90;94.40
73955;DHT22;62306;52.516;13.290;2023-05-20T01:17:30;11.80;94.60
73955;DHT22;62306;52.516;13.290;2023-05-20T01:19:59;11.80;94.70
73955;DHT22;62306;52.516;13.290;2023-05-20T01:22:28;11.80;94.90
73955;DHT22;62306;52.516;13.290;2023-05-20T01:24:55;11.80;95.10
73955;DHT22;62306;52.516;13.290;2023-05-20T01:27:22;11.80;95.30
73955;DHT22;62306;52.516;13.290;2023-05-20T01:29:50;11.70;95.50
73955;DHT22;62306;52.516;13.290;2023-05-20T01:32:20;11.70;95.70
73955;DHT22;62306;52.516;13.290;2023-05-20T01:34:48;11.70;95.80
73955;DHT22;62306;52.516;13.290;2023-05-20T01:37:16;11.70;95.90
73955;DHT22;62306;52.516;13.290;2023-05-20T01:39:46;11.60;96.10
73955;DHT22;62306;52.516;13.290;2023-05-20T01:42:14;11.60;96.30
73955;DHT22;62306;52.516;13.290;2023-05-20T01:44:42;11.60;96.40
73955;DHT22;62306;52.516;13.290;2023-05-20T01:47:09;11.60;96.70
73955;DHT22;62306;52.516;13.290;2023-05-20T01:49:36;11.60;96.70
73955;DHT22;62306;52.516;13.290;2023-05-20T01:52:03;11.60;96.90
73955;DHT22;62306;52.516;13.290;2023-05-20T01:54:30;11.60;97.00
73955;DHT22;62306;52.516;13.290;2023-05-20T01:56:59;11.60;97.00
73955;DHT22;62306;52.516;13.290;2023-05-20T01:59:26;11.60;97.10
73955;DHT22;62306;52.516;13.290;2023-05-20T02:01:53;11.50;97.20
73955;DHT22;62306;52.516;13.290;2023-05-20T02:04:20;11.50;97.40
73955;DHT22;62306;52.516;13.290;2023-05-20T02:06:47;11.50;97.30
73955;DHT22;62306;52.516;13.290;2023-05-20T02:09:14;11.50;97.60
73955;DHT22;62306;52.516;13.290;2023-05-20T02:11:41;11.40;97.70
73955;DHT22;62306;52.516;13.290;2023-05-20T02:14:09;11.40;97.90
73955;DHT22;62306;52.516;13.290;2023-05-20T02:16:36;11.40;98.20
73955;DHT22;62306;52.516;13.290;2023-05-20T02:19:03;11.40;98.20
73955;DHT22;62306;52.516;13.290;2023-05-20T02:21:30;11.40;98.20
73955;DHT22;62306;52.516;13.290;2023-05-20T02:23:56;11.40;98.20
73955;DHT22;62306;52.516;13.290;2023-05-20T02:26:23;11.40;98.30
73955;DHT22;62306;52.516;13.290;2023-05-20T02:28:50;11.40;98.50
73955;DHT22;62306;52.516;13.290;2023-05-20T02:31:19;11.40;98.30
73955;DHT22;62306;52.516;13.290;2023-05-20T02:33:45;11.40;98.40
73955;DHT22;62306;52.516;13.290;2023-05-20T02:36:12;11.40;98.50
73955;DHT22;62306;52.516;13.290;2023-05-20T02:38:39;11.30;98.50
73955;DHT22;62306;52.516;13.290;2023-05-20T02:41:06;11.40;98.60
73955;DHT22;62306;52.516;13.290;2023-05-20T02:43:33;11.40;98.70
73955;DHT22;62306;52.516;13.290;2023-05-20T02:46:01;11.40;98.70
73955;DHT22;62306;52.516;13.290;2023-05-20T02:48:29;11.40;98.60
73955;DHT22;62306;52.516;13.290;2023-05-20T02:50:57;11.40;98.80
73955;DHT22;62306;52.516;13.290;2023-05-20T02:53:24;11.40;98.70
73955;DHT22;62306;52.516;13.290;2023-05-20T02:55:51;11.40;98.80
73955;DHT22;62306;52.516;13.290;2023-05-20T02:58:19;11.40;98.80
73955;DHT22;62306;52.516;13.290;2023-05-20T03:00:51;11.40;98.90
73955;DHT22;62306;52.516;13.290;2023-05-20T03:03:17;11.40;98.70
73955;DHT22;62306;52.516;13.290;2023-05-20T03:05:46;11.40;98.70
73955;DHT22;62306;52.516;13.290;2023-05-20T03:08:13;11.40;98.70
73955;DHT22;62306;52.516;13.290;2023-05-20T03:10:39;11.30;98.60
73955;DHT22;62306;52.516;13.290;2023-05-20T03:13:07;11.40;98.70
73955;DHT22;62306;52.516;13.290;2023-05-20T03:15:35;11.40;98.80
73955;DHT22;62306;52.516;13.290;2023-05-20T03:18:03;11.40;99.10
73955;DHT22;62306;52.516;13.290;2023-05-20T03:20:30;11.40;98.90
73955;DHT22;62306;52.516;13.290;2023-05-20T03:22:59;11.40;98.80
73955;DHT22;62306;52.516;13.290;2023-05-20T03:25:26;11.40;98.90
73955;DHT22;62306;52.516;13.290;2023-05-20T03:27:53;11.40;98.90
73955;DHT22;62306;52.516;13.290;2023-05-20T03:30:20;11.40;98.80
73955;DHT22;62306;52.516;13.290;2023-05-20T03:32:47;11.40;98.70
73955;DHT22;62306;52.516;13.290;2023-05-20T03:35:15;11.40;98.80
73955;DHT22;62306;52.516;13.290;2023-05-20T03:37:42;11.50;98.70
73955;DHT22;62306;52.516;13.290;2023-05-20T03:40:11;11.50;98.70
73955;DHT22;62306;52.516;13.290;2023-05-20T03:42:38;11.40;98.80
73955;DHT22;62306;52.516;13.290;2023-05-20T03:45:06;11.50;98.70
73955;DHT22;62306;52.516;13.290;2023-05-20T03:47:33;11.50;98.60
73955;DHT22;62306;52.516;13.290;2023-05-20T03:50:00;11.40;98.70
73955;DHT22;62306;52.516;13.290;2023-05-20T03:52:27;11.50;98.70
73955;DHT22;62306;52.516;13.290;2023-05-20T03:54:54;11.50;98.50
73955;DHT22;62306;52.516;13.290;2023-05-20T03:57:23;11.40;98.60
73955;DHT22;62306;52.516;13.290;2023-05-20T03:59:50;11.40;98.80
73955;DHT22;62306;52.516;13.290;2023-05-20T04:02:16;11.30;98.90
73955;DHT22;62306;52.516;13.290;2023-05-20T04:04:43;11.40;98.90
73955;DHT22;62306;52.516;13.290;2023-05-20T04:07:11;11.40;98.90
73955;DHT22;62306;52.516;13.290;2023-05-20T04:09:38;11.40;98.90
73955;DHT22;62306;52.516;13.290;2023-05-20T04:12:05;11.40;98.90
73955;DHT22;62306;52.516;13.290;2023-05-20T04:14:33;11.40;98.90
73955;DHT22;62306;52.516;13.290;2023-05-20T04:17:02;11.40;98.80
73955;DHT22;62306;52.516;13.290;2023-05-20T04:19:29;11.40;98.80
73955;DHT22;62306;52.516;13.290;2023-05-20T04:21:56;11.30;99.20
73955;DHT22;62306;52.516;13.290;2023-05-20T04:24:24;11.20;99.30
73955;DHT22;62306;52.516;13.290;2023-05-20T04:26:52;11.30;99.20
73955;DHT22;62306;52.516;13.290;2023-05-20T04:29:19;11.40;99.20
73955;DHT22;62306;52.516;13.290;2023-05-20T04:31:48;11.40;99.20
73955;DHT22;62306;52.516;13.290;2023-05-20T04:34:16;11.40;99.20
73955;DHT22;62306;52.516;13.290;2023-05-20T04:36:44;11.40;99.10
73955;DHT22;62306;52.516;13.290;2023-05-20T04:39:11;11.40;99.10
73955;DHT22;62306;52.516;13.290;2023-05-20T04:41:40;11.40;99.10
73955;DHT22;62306;52.516;13.290;2023-05-20T04:44:07;11.50;99.00
73955;DHT22;62306;52.516;13.290;2023-05-20T04:46:34;11.50;99.00
73955;DHT22;62306;52.516;13.290;2023-05-20T04:49:04;11.50;99.10
73955;DHT22;62306;52.516;13.290;2023-05-20T04:51:31;11.60;99.00
73955;DHT22;62306;52.516;13.290;2023-05-20T04:53:58;11.50;99.00
73955;DHT22;62306;52.516;13.290;2023-05-20T04:56:25;11.50;99.20
73955;DHT22;62306;52.516;13.290;2023-05-20T04:58:52;11.50;99.30
73955;DHT22;62306;52.516;13.290;2023-05-20T05:01:20;11.50;99.30
73955;DHT22;62306;52.516;13.290;2023-05-20T05:03:47;11.50;99.40
73955;DHT22;62306;52.516;13.290;2023-05-20T05:06:15;11.50;99.40
73955;DHT22;62306;52.516;13.290;2023-05-20T05:08:42;11.50;99.30
73955;DHT22;62306;52.516;13.290;2023-05-20T05:11:10;11.50;99.30
73955;DHT22;62306;52.516;13.290;2023-05-20T05:13:37;11.50;99.40
73955;DHT22;62306;52.516;13.290;2023-05-20T05:16:04;11.50;99.40
73955;DHT22;62306;52.516;13.290;2023-05-20T05:18:31;11.60;99.30
73955;DHT22;62306;52.516;13.290;2023-05-20T05:21:00;11.60;99.40
73955;DHT22;62306;52.516;13.290;2023-05-20T05:23:28;11.60;99.50
73955;DHT22;62306;52.516;13.290;2023-05-20T05:25:55;11.60;99.60
73955;DHT22;62306;52.516;13.290;2023-05-20T05:28:22;11.60;99.70
73955;DHT22;62306;52.516;13.290;2023-05-20T05:30:49;11.50;99.90
73955;DHT22;62306;52.516;13.290;2023-05-20T05:33:17;11.40;99.90
73955;DHT22;62306;52.516;13.290;2023-05-20T05:35:44;11.30;99.90
73955;DHT22;62306;52.516;13.290;2023-05-20T05:38:11;11.30;99.90
73955;DHT22;62306;52.516;13.290;2023-05-20T05:40:40;11.40;99.90
73955;DHT22;62306;52.516;13.290;2023-05-20T05:43:07;11.50;99.90
73955;DHT22;62306;52.516;13.290;2023-05-20T05:45:34;11.60;99.90
73955;DHT22;62306;52.516;13.290;2023-05-20T05:48:01;11.60;99.90
73955;DHT22;62306;52.516;13.290;2023-05-20T05:50:28;11.70;99.90
73955;DHT22;62306;52.516;13.290;2023-05-20T05:52:55;11.70;99.90
73955;DHT22;62306;52.516;13.290;2023-05-20T05:55:21;11.70;99.90
73955;DHT22;62306;52.516;13.290;2023-05-20T05:57:50;11.80;99.90
73955;DHT22;62306;52.516;13.290;2023-05-20T06:00:17;11.90;99.90
73955;DHT22;62306;52.516;13.290;2023-05-20T06:02:44;11.90;99.90
73955;DHT22;62306;52.516;13.290;2023-05-20T06:05:11;11.90;99.90
73955;DHT22;62306;52.516;13.290;2023-05-20T06:07:38;11.90;99.90
73955;DHT22;62306;52.516;13.290;2023-05-20T06:10:06;12.00;99.90
73955;DHT22;62306;52.516;13.290;2023-05-20T06:12:33;11.90;99.90
73955;DHT22;62306;52.516;13.290;2023-05-20T06:15:02;12.00;99.90
73955;DHT22;62306;52.516;13.290;2023-05-20T06:17:29;12.00;99.90
73955;DHT22;62306;52.516;13.290;2023-05-20T06:19:56;12.10;99.90
73955;DHT22;62306;52.516;13.290;2023-05-20T06:22:23;12.10;99.90
73955;DHT22;62306;52.516;13.290;2023-05-20T06:24:50;12.10;99.90
73955;DHT22;62306;52.516;13.290;2023-05-20T06:27:19;12.10;99.90
73955;DHT22;62306;52.516;13.290;2023-05-20T06:29:46;12.00;99.90
73955;DHT22;62306;52.516;13.290;2023-05-20T06:32:14;12.00;99.90
73955;DHT22;62306;52.516;13.290;2023-05-20T06:34:41;12.00;99.90
73955;DHT22;62306;52.516;13.290;2023-05-20T06:37:08;12.00;99.90
73955;DHT22;62306;52.516;13.290;2023-05-20T06:39:35;12.10;99.90
73955;DHT22;62306;52.516;13.290;2023-05-20T06:42:03;12.00;99.90
73955;DHT22;62306;52.516;13.290;2023-05-20T06:44:30;12.10;99.90
73955;DHT22;62306;52.516;13.290;2023-05-20T06:46:57;12.10;99.90
73955;DHT22;62306;52.516;13.290;2023-05-20T06:49:25;12.20;99.90
73955;DHT22;62306;52.516;13.290;2023-05-20T06:51:52;12.20;99.90
73955;DHT22;62306;52.516;13.290;2023-05-20T06:54:19;12.30;99.90
73955;DHT22;62306;52.516;13.290;2023-05-20T06:56:46;12.30;99.90
73955;DHT22;62306;52.516;13.290;2023-05-20T06:59:13;12.40;99.90
73955;DHT22;62306;52.516;13.290;2023-05-20T07:01:40;12.30;99.90
73955;DHT22;62306;52.516;13.290;2023-05-20T07:04:08;12.40;99.90
73955;DHT22;62306;52.516;13.290;2023-05-20T07:06:36;12.40;99.90
73955;DHT22;62306;52.516;13.290;2023-05-20T07:09:03;12.50;99.90
73955;DHT22;62306;52.516;13.290;2023-05-20T07:11:31;12.60;99.90
73955;DHT22;62306;52.516;13.290;2023-05-20T07:13:58;12.70;99.70
73955;DHT22;62306;52.516;13.290;2023-05-20T07:16:24;12.80;99.70
73955;DHT22;62306;52.516;13.290;2023-05-20T07:18:51;12.90;99.50
73955;DHT22;62306;52.516;13.290;2023-05-20T07:21:18;13.00;99.60
73955;DHT22;62306;52.516;13.290;2023-05-20T07:23:47;13.10;99.10
73955;DHT22;62306;52.516;13.290;2023-05-20T07:26:13;13.10;99.00
73955;DHT22;62306;52.516;13.290;2023-05-20T07:28:41;13.10;99.00
73955;DHT22;62306;52.516;13.290;2023-05-20T07:31:08;13.10;99.10
73955;DHT22;62306;52.516;13.290;2023-05-20T07:33:35;13.20;99.00
73955;DHT22;62306;52.516;13.290;2023-05-20T07:36:03;13.30;98.70
73955;DHT22;62306;52.516;13.290;2023-05-20T07:38:30;13.50;98.40
73955;DHT22;62306;52.516;13.290;2023-05-20T07:40:59;13.70;98.00
73955;DHT22;62306;52.516;13.290;2023-05-20T07:43:26;13.70;97.80
73955;DHT22;62306;52.516;13.290;2023-05-20T07:45:53;13.80;97.60
73955;DHT22;62306;52.516;13.290;2023-05-20T07:48:20;13.90;97.30
73955;DHT22;62306;52.516;13.290;2023-05-20T07:50:46;14.00;97.00
73955;DHT22;62306;52.516;13.290;2023-05-20T07:53:13;13.90;97.10
73955;DHT22;62306;52.516;13.290;2023-05-20T07:55:40;13.80;97.20
73955;DHT22;62306;52.516;13.290;2023-05-20T07:58:08;13.70;97.20
73955;DHT22;62306;52.516;13.290;2023-05-20T08:00:35;13.70;97.50
73955;DHT22;62306;52.516;13.290;2023-05-20T08:03:02;13.90;97.20
73955;DHT22;62306;52.516;13.290;2023-05-20T08:05:29;14.10;96.80
73955;DHT22;62306;52.516;13.290;2023-05-20T08:07:56;14.20;96.40
73955;DHT22;62306;52.516;13.290;2023-05-20T08:10:23;14.50;95.90
73955;DHT22;62306;52.516;13.290;2023-05-20T08:12:50;14.60;95.50
73955;DHT22;62306;52.516;13.290;2023-05-20T08:15:18;14.80;95.20
73955;DHT22;62306;52.516;13.290;2023-05-20T08:17:45;14.80;94.70
73955;DHT22;62306;52.516;13.290;2023-05-20T08:20:12;14.50;95.30
73955;DHT22;62306;52.516;13.290;2023-05-20T08:22:41;14.50;95.50
73955;DHT22;62306;52.516;13.290;2023-05-20T08:25:08;14.50;95.50
73955;DHT22;62306;52.516;13.290;2023-05-20T08:27:35;14.60;95.10
73955;DHT22;62306;52.516;13.290;2023-05-20T08:30:02;14.40;95.70
73955;DHT22;62306;52.516;13.290;2023-05-20T08:32:31;14.50;95.60
73955;DHT22;62306;52.516;13.290;2023-05-20T08:34:58;14.70;95.10
73955;DHT22;62306;52.516;13.290;2023-05-20T08:37:26;14.90;94.70
73955;DHT22;62306;52.516;13.290;2023-05-20T08:39:53;15.10;94.40
73955;DHT22;62306;52.516;13.290;2023-05-20T08:42:22;15.10;94.00
73955;DHT22;62306;52.516;13.290;2023-05-20T08:44:51;15.30;93.90
73955;DHT22;62306;52.516;13.290;2023-05-20T08:47:19;15.50;93.30
73955;DHT22;62306;52.516;13.290;2023-05-20T08:49:47;15.80;92.80
73955;DHT22;62306;52.516;13.290;2023-05-20T08:52:16;15.80;92.40
73955;DHT22;62306;52.516;13.290;2023-05-20T08:54:44;15.40;93.00
73955;DHT22;62306;52.516;13.290;2023-05-20T08:57:11;15.60;93.30
73955;DHT22;62306;52.516;13.290;2023-05-20T08:59:41;16.00;92.20
73955;DHT22;62306;52.516;13.290;2023-05-20T09:02:08;16.20;91.90
73955;DHT22;62306;52.516;13.290;2023-05-20T09:04:35;16.10;91.60
73955;DHT22;62306;52.516;13.290;2023-05-20T09:07:04;16.00;91.80
73955;DHT22;62306;52.516;13.290;2023-05-20T09:09:33;15.90;92.00
73955;DHT22;62306;52.516;13.290;2023-05-20T09:12:00;15.60;92.40
73955;DHT22;62306;52.516;13.290;2023-05-20T09:14:27;15.30;93.00
73955;DHT22;62306;52.516;13.290;2023-05-20T09:16:54;15.30;93.10
73955;DHT22;62306;52.516;13.290;2023-05-20T09:19:22;15.30;93.20
73955;DHT22;62306;52.516;13.290;2023-05-20T09:21:52;15.20;93.50
73955;DHT22;62306;52.516;13.290;2023-05-20T09:24:22;15.10;93.90
73955;DHT22;62306;52.516;13.290;2023-05-20T09:26:50;15.10;93.90
73955;DHT22;62306;52.516;13.290;2023-05-20T09:29:17;15.30;93.70
73955;DHT22;62306;52.516;13.290;2023-05-20T09:31:46;15.20;93.30
73955;DHT22;62306;52.516;13.290;2023-05-20T09:34:13;15.70;93.00
73955;DHT22;62306;52.516;13.290;2023-05-20T09:36:42;16.00;92.40
73955;DHT22;62306;52.516;13.290;2023-05-20T09:39:12;16.00;92.30
73955;DHT22;62306;52.516;13.290;2023-05-20T09:41:49;16.10;92.10
73955;DHT22;62306;52.516;13.290;2023-05-20T09:44:18;16.30;91.90
73955;DHT22;62306;52.516;13.290;2023-05-20T09:46:48;16.10;91.90
73955;DHT22;62306;52.516;13.290;2023-05-20T09:49:18;15.90;92.40
73955;DHT22;62306;52.516;13.290;2023-05-20T09:51:47;16.10;92.20
73955;DHT22;62306;52.516;13.290;2023-05-20T09:54:17;16.10;92.00
73955;DHT22;62306;52.516;13.290;2023-05-20T09:56:46;16.10;92.10
73955;DHT22;62306;52.516;13.290;2023-05-20T09:59:14;16.10;92.30
73955;DHT22;62306;52.516;13.290;2023-05-20T10:01:42;16.10;92.10
73955;DHT22;62306;52.516;13.290;2023-05-20T10:04:11;15.90;92.30
73955;DHT22;62306;52.516;13.290;2023-05-20T10:07:10;15.70;93.10
73955;DHT22;62306;52.516;13.290;2023-05-20T10:09:50;15.80;92.90
73955;DHT22;62306;52.516;13.290;2023-05-20T10:12:41;15.90;92.60
73955;DHT22;62306;52.516;13.290;2023-05-20T10:15:28;16.10;92.10
73955;DHT22;62306;52.516;13.290;2023-05-20T10:18:03;16.10;92.20
73955;DHT22;62306;52.516;13.290;2023-05-20T10:20:31;16.20;92.00
73955;DHT22;62306;52.516;13.290;2023-05-20T10:22:58;16.30;91.70
73955;DHT22;62306;52.516;13.290;2023-05-20T10:25:26;16.00;92.00
73955;DHT22;62306;52.516;13.290;2023-05-20T10:28:06;15.90;92.50
73955;DHT22;62306;52.516;13.290;2023-05-20T10:30:33;15.70;92.90
73955;DHT22;62306;52.516;13.290;2023-05-20T10:33:03;15.80;92.90
73955;DHT22;62306;52.516;13.290;2023-05-20T10:35:31;16.00;92.70
73955;DHT22;62306;52.516;13.290;2023-05-20T10:38:08;16.20;92.40
73955;DHT22;62306;52.516;13.290;2023-05-20T10:40:36;16.60;91.60
73955;DHT22;62306;52.516;13.290;2023-05-20T10:43:10;16.60;91.30
73955;DHT22;62306;52.516;13.290;2023-05-20T10:45:48;16.10;92.20
73955;DHT22;62306;52.516;13.290;2023-05-20T10:48:26;16.30;92.10
73955;DHT22;62306;52.516;13.290;2023-05-20T10:50:54;16.50;92.10
73955;DHT22;62306;52.516;13.290;2023-05-20T10:53:23;16.60;91.40
73955;DHT22;62306;52.516;13.290;2023-05-20T10:55:51;16.60;91.70
73955;DHT22;62306;52.516;13.290;2023-05-20T10:58:21;16.90;91.30
73955;DHT22;62306;52.516;13.290;2023-05-20T11:00:48;17.40;90.50
73955;DHT22;62306;52.516;13.290;2023-05-20T11:03:16;17.20;90.40
73955;DHT22;62306;52.516;13.290;2023-05-20T11:05:44;17.20;90.40
73955;DHT22;62306;52.516;13.290;2023-05-20T11:08:12;17.10;90.40
73955;DHT22;62306;52.516;13.290;2023-05-20T11:10:40;17.10;90.80
73955;DHT22;62306;52.516;13.290;2023-05-20T11:13:07;17.10;90.80
73955;DHT22;62306;52.516;13.290;2023-05-20T11:15:35;17.10;90.70
73955;DHT22;62306;52.516;13.290;2023-05-20T11:18:03;17.30;90.40
73955;DHT22;62306;52.516;13.290;2023-05-20T11:20:30;17.60;89.70
73955;DHT22;62306;52.516;13.290;2023-05-20T11:23:00;18.00;88.10
73955;DHT22;62306;52.516;13.290;2023-05-20T11:25:28;18.40;85.50
73955;DHT22;62306;52.516;13.290;2023-05-20T11:27:55;18.30;85.40
73955;DHT22;62306;52.516;13.290;2023-05-20T11:30:22;18.30;85.10
73955;DHT22;62306;52.516;13.290;2023-05-20T11:32:58;18.40;84.50
73955;DHT22;62306;52.516;13.290;2023-05-20T11:35:25;18.60;84.60
73955;DHT22;62306;52.516;13.290;2023-05-20T11:37:55;19.00;83.40
73955;DHT22;62306;52.516;13.290;2023-05-20T11:40:24;19.30;82.00
73955;DHT22;62306;52.516;13.290;2023-05-20T11:42:53;19.20;80.70
73955;DHT22;62306;52.516;13.290;2023-05-20T11:45:20;19.30;80.50
73955;DHT22;62306;52.516;13.290;2023-05-20T11:48:00;19.00;80.90
73955;DHT22;62306;52.516;13.290;2023-05-20T11:50:27;18.50;82.90
73955;DHT22;62306;52.516;13.290;2023-05-20T11:52:57;18.30;83.40
73955;DHT22;62306;52.516;13.290;2023-05-20T11:55:24;18.00;84.60
73955;DHT22;62306;52.516;13.290;2023-05-20T11:57:51;18.00;84.50
73955;DHT22;62306;52.516;13.290;2023-05-20T12:00:18;18.40;83.90
73955;DHT22;62306;52.516;13.290;2023-05-20T12:02:46;18.50;83.30
73955;DHT22;62306;52.516;13.290;2023-05-20T12:05:14;18.40;83.90
73955;DHT22;62306;52.516;13.290;2023-05-20T12:07:41;18.20;84.20
73955;DHT22;62306;52.516;13.290;2023-05-20T12:10:08;18.30;84.10
73955;DHT22;62306;52.516;13.290;2023-05-20T12:12:35;17.90;85.10
73955;DHT22;62306;52.516;13.290;2023-05-20T12:15:02;17.90;85.50
73955;DHT22;62306;52.516;13.290;2023-05-20T12:17:31;18.00;85.30
73955;DHT22;62306;52.516;13.290;2023-05-20T12:19:57;18.00;85.40
73955;DHT22;62306;52.516;13.290;2023-05-20T12:22:26;18.10;85.10
73955;DHT22;62306;52.516;13.290;2023-05-20T12:24:53;17.70;85.50
73955;DHT22;62306;52.516;13.290;2023-05-20T12:27:20;17.70;86.40
73955;DHT22;62306;52.516;13.290;2023-05-20T12:29:47;17.90;86.10
73955;DHT22;62306;52.516;13.290;2023-05-20T12:32:14;17.80;86.20
73955;DHT22;62306;52.516;13.290;2023-05-20T12:34:41;17.80;86.60
73955;DHT22;62306;52.516;13.290;2023-05-20T12:37:08;18.10;86.30
73955;DHT22;62306;52.516;13.290;2023-05-20T12:39:36;18.30;84.90
73955;DHT22;62306;52.516;13.290;2023-05-20T12:42:03;18.30;84.60
73955;DHT22;62306;52.516;13.290;2023-05-20T12:44:30;18.30;85.20
73955;DHT22;62306;52.516;13.290;2023-05-20T12:46:57;18.40;84.70
73955;DHT22;62306;52.516;13.290;2023-05-20T12:49:24;18.30;84.80
73955;DHT22;62306;52.516;13.290;2023-05-20T12:51:51;18.10;85.70
73955;DHT22;62306;52.516;13.290;2023-05-20T12:54:19;17.80;86.30
73955;DHT22;62306;52.516;13.290;2023-05-20T12:56:47;17.40;87.40
73955;DHT22;62306;52.516;13.290;2023-05-20T12:59:14;17.70;87.50
73955;DHT22;62306;52.516;13.290;2023-05-20T13:01:41;18.10;86.60
73955;DHT22;62306;52.516;13.290;2023-05-20T13:04:08;18.40;85.00
73955;DHT22;62306;52.516;13.290;2023-05-20T13:06:36;18.30;84.60
73955;DHT22;62306;52.516;13.290;2023-05-20T13:09:03;18.50;84.70
73955;DHT22;62306;52.516;13.290;2023-05-20T13:11:30;18.80;83.10
73955;DHT22;62306;52.516;13.290;2023-05-20T13:13:58;18.70;83.40
73955;DHT22;62306;52.516;13.290;2023-05-20T13:16:25;18.90;83.30
73955;DHT22;62306;52.516;13.290;2023-05-20T13:18:53;18.70;83.60
73955;DHT22;62306;52.516;13.290;2023-05-20T13:21:20;18.80;83.90
73955;DHT22;62306;52.516;13.290;2023-05-20T13:23:47;18.70;84.30
73955;DHT22;62306;52.516;13.290;2023-05-20T13:26:14;18.40;85.00
73955;DHT22;62306;52.516;13.290;2023-05-20T13:28:40;18.50;85.60
73955;DHT22;62306;52.516;13.290;2023-05-20T13:31:09;18.50;85.10
73955;DHT22;62306;52.516;13.290;2023-05-20T13:33:36;18.60;84.40
73955;DHT22;62306;52.516;13.290;2023-05-20T13:36:03;18.80;84.00
73955;DHT22;62306;52.516;13.290;2023-05-20T13:38:30;18.80;83.50
73955;DHT22;62306;52.516;13.290;2023-05-20T13:40:57;18.70;84.50
73955;DHT22;62306;52.516;13.290;2023-05-20T13:43:24;18.80;83.60
73955;DHT22;62306;52.516;13.290;2023-05-20T13:45:51;18.80;83.40
73955;DHT22;62306;52.516;13.290;2023-05-20T13:48:19;18.90;83.30
73955;DHT22;62306;52.516;13.290;2023-05-20T13:50:46;19.10;82.90
73955;DHT22;62306;52.516;13.290;2023-05-20T13:53:14;19.20;82.50
73955;DHT22;62306;52.516;13.290;2023-05-20T13:55:41;19.30;82.20
73955;DHT22;62306;52.516;13.290;2023-05-20T13:58:08;19.30;82.30
73955;DHT22;62306;52.516;13.290;2023-05-20T14:00:35;19.40;81.70
73955;DHT22;62306;52.516;13.290;2023-05-20T14:03:02;19.10;82.90
73955;DHT22;62306;52.516;13.290;2023-05-20T14:05:31;18.90;83.10
73955;DHT22;62306;52.516;13.290;2023-05-20T14:07:58;18.80;83.80
73955;DHT22;62306;52.516;13.290;2023-05-20T14:10:25;19.00;83.10
73955;DHT22;62306;52.516;13.290;2023-05-20T14:12:53;19.20;82.30
73955;DHT22;62306;52.516;13.290;2023-05-20T14:15:20;19.30;81.70
73955;DHT22;62306;52.516;13.290;2023-05-20T14:17:47;19.40;81.30
73955;DHT22;62306;52.516;13.290;2023-05-20T14:20:14;19.50;81.10
73955;DHT22;62306;52.516;13.290;2023-05-20T14:22:43;19.30;81.60
73955;DHT22;62306;52.516;13.290;2023-05-20T14:25:09;19.20;82.50
73955;DHT22;62306;52.516;13.290;2023-05-20T14:27:36;19.40;82.10
73955;DHT22;62306;52.516;13.290;2023-05-20T14:30:05;19.20;82.10
73955;DHT22;62306;52.516;13.290;2023-05-20T14:32:32;19.10;82.40
73955;DHT22;62306;52.516;13.290;2023-05-20T14:34:59;19.10;82.40
73955;DHT22;62306;52.516;13.290;2023-05-20T14:37:26;19.10;82.80
73955;DHT22;62306;52.516;13.290;2023-05-20T14:39:55;19.10;82.40
73955;DHT22;62306;52.516;13.290;2023-05-20T14:42:21;19.30;82.00
73955;DHT22;62306;52.516;13.290;2023-05-20T14:44:48;19.30;81.90
73955;DHT22;62306;52.516;13.290;2023-05-20T14:47:15;19.40;81.80
73955;DHT22;62306;52.516;13.290;2023-05-20T14:49:45;19.20;82.10
73955;DHT22;62306;52.516;13.290;2023-05-20T14:52:14;19.00;82.90
73955;DHT22;62306;52.516;13.290;2023-05-20T14:54:41;19.00;83.30
73955;DHT22;62306;52.516;13.290;2023-05-20T14:57:09;19.00;83.40
73955;DHT22;62306;52.516;13.290;2023-05-20T14:59:36;19.20;82.60
73955;DHT22;62306;52.516;13.290;2023-05-20T15:02:03;19.20;82.10
73955;DHT22;62306;52.516;13.290;2023-05-20T15:04:31;19.20;81.70
73955;DHT22;62306;52.516;13.290;2023-05-20T15:06:58;19.30;81.70
73955;DHT22;62306;52.516;13.290;2023-05-20T15:09:25;19.30;81.90
73955;DHT22;62306;52.516;13.290;2023-05-20T15:11:52;19.40;82.00
73955;DHT22;62306;52.516;13.290;2023-05-20T15:14:20;19.50;81.90
73955;DHT22;62306;52.516;13.290;2023-05-20T15:16:47;19.40;82.20
73955;DHT22;62306;52.516;13.290;2023-05-20T15:19:14;19.40;82.50